createdAt,value
2019-01-04T00:00:37.270Z,99.79
2019-01-04T00:01:37.258Z,99.48
2019-01-04T00:02:37.222Z,99.69
2019-01-04T00:03:37.211Z,99.58
2019-01-04T00:04:37.229Z,99.58
2019-01-04T00:05:37.188Z,99.69
2019-01-04T00:06:37.209Z,99.58
2019-01-04T00:07:37.170Z,99.69
2019-01-04T00:08:37.194Z,99.58
2019-01-04T00:09:37.145Z,99.69
2019-01-04T00:10:37.164Z,99.48
2019-01-04T00:11:37.233Z,99.69
2019-01-04T00:12:37.210Z,99.58
2019-01-04T00:13:37.133Z,99.58
2019-01-04T00:14:37.110Z,99.69
2019-01-04T00:15:37.087Z,99.58
2019-01-04T00:16:37.117Z,99.48
2019-01-04T00:17:37.060Z,99.41
2019-01-04T00:18:37.049Z,99.52
2019-01-04T00:19:37.063Z,99.63
2019-01-04T00:20:37.027Z,99.58
2019-01-04T00:21:37.013Z,99.63
2019-01-04T00:22:37.029Z,99.63
2019-01-04T00:23:36.995Z,99.63
2019-01-04T00:24:37.007Z,99.69
2019-01-04T00:25:37.004Z,99.69
2019-01-04T00:26:36.965Z,99.16
2019-01-04T00:27:36.948Z,99.27
2019-01-04T00:28:36.954Z,99.48
2019-01-04T00:29:36.933Z,99.31
2019-01-04T00:30:36.945Z,99.31
2019-01-04T00:31:36.967Z,99.52
2019-01-04T00:32:36.894Z,99.31
2019-01-04T00:33:36.888Z,99.52
2019-01-04T00:34:36.914Z,99.31
2019-01-04T00:35:36.895Z,99.52
2019-01-04T00:36:36.854Z,99.21
2019-01-04T00:37:36.843Z,99.31
2019-01-04T00:38:36.833Z,99.52
2019-01-04T00:39:36.818Z,99.63
2019-01-04T00:40:36.929Z,99.63
2019-01-04T00:41:36.797Z,99.63
2019-01-04T00:42:36.787Z,99.99
2019-01-04T00:43:36.805Z,99.95
2019-01-04T00:44:36.769Z,99.99
2019-01-04T00:45:36.760Z,99.99
2019-01-04T00:46:36.787Z,99.99
2019-01-04T00:47:36.735Z,99.84
2019-01-04T00:48:36.761Z,99.95
2019-01-04T00:49:36.815Z,99.95
2019-01-04T00:50:36.699Z,99.99
2019-01-04T00:51:36.737Z,99.84
2019-01-04T00:52:36.727Z,99.95
2019-01-04T00:53:36.693Z,99.99
2019-01-04T00:54:36.664Z,99.95
2019-01-04T00:55:36.646Z,99.99
2019-01-04T00:56:36.635Z,99.99
2019-01-04T00:57:36.627Z,99.99
2019-01-04T00:58:36.659Z,99.99
2019-01-04T00:59:36.668Z,99.99
2019-01-04T01:00:36.594Z,99.99
2019-01-04T01:01:36.579Z,99.99
2019-01-04T01:02:36.569Z,99.99
2019-01-04T01:03:36.560Z,99.99
2019-01-04T01:04:36.580Z,99.99
2019-01-04T01:05:36.574Z,99.99
2019-01-04T01:06:36.529Z,99.99
2019-01-04T01:07:36.624Z,99.99
2019-01-04T01:08:36.507Z,99.99
2019-01-04T01:09:36.531Z,99.99
2019-01-04T01:10:36.484Z,99.99
2019-01-04T01:11:36.486Z,99.99
2019-01-04T01:12:36.472Z,99.99
2019-01-04T01:13:36.455Z,99.99
2019-01-04T01:14:36.501Z,99.99
2019-01-04T01:15:36.452Z,99.99
2019-01-04T01:16:36.443Z,99.99
2019-01-04T01:17:36.423Z,99.99
2019-01-04T01:18:36.396Z,99.99
2019-01-04T01:19:36.388Z,99.99
2019-01-04T01:20:36.375Z,99.99
2019-01-04T01:21:36.387Z,99.99
2019-01-04T01:22:36.391Z,99.99
2019-01-04T01:23:36.367Z,99.99
2019-01-04T01:24:36.338Z,99.99
2019-01-04T01:25:36.326Z,99.99
2019-01-04T01:26:36.311Z,99.99
2019-01-04T01:27:36.299Z,99.99
2019-01-04T01:28:36.352Z,99.99
2019-01-04T01:29:36.310Z,99.99
2019-01-04T01:30:36.269Z,99.99
2019-01-04T01:31:36.257Z,99.99
2019-01-04T01:32:36.250Z,99.99
2019-01-04T01:33:36.240Z,99.99
2019-01-04T01:34:36.276Z,99.99
2019-01-04T01:35:36.211Z,99.99
2019-01-04T01:36:36.203Z,99.99
2019-01-04T01:37:36.198Z,99.99
2019-01-04T01:38:36.179Z,99.99
2019-01-04T01:39:36.194Z,99.99
2019-01-04T01:40:36.227Z,99.99
2019-01-04T01:41:36.147Z,99.99
2019-01-04T01:42:36.142Z,99.99
2019-01-04T01:43:36.125Z,99.99
2019-01-04T01:44:36.112Z,99.99
2019-01-04T01:45:36.137Z,99.99
2019-01-04T01:46:36.109Z,99.99
2019-01-04T01:47:36.080Z,99.99
2019-01-04T01:48:36.075Z,99.99
2019-01-04T01:49:36.062Z,99.99
2019-01-04T01:50:36.085Z,99.99
2019-01-04T01:51:36.042Z,99.99
2019-01-04T01:52:36.041Z,99.99
2019-01-04T01:53:36.023Z,99.99
2019-01-04T01:54:36.008Z,99.99
2019-01-04T01:55:36.012Z,99.99
2019-01-04T01:56:35.987Z,99.99
2019-01-04T01:57:35.976Z,99.99
2019-01-04T01:58:36.005Z,99.99
2019-01-04T01:59:35.954Z,99.99
2019-01-04T02:00:35.941Z,99.99
2019-01-04T02:01:35.934Z,99.99
2019-01-04T02:02:35.925Z,99.99
2019-01-04T02:03:35.957Z,99.99
2019-01-04T02:04:35.935Z,99.99
2019-01-04T02:05:35.894Z,99.99
2019-01-04T02:06:35.877Z,99.99
2019-01-04T02:07:35.865Z,99.99
2019-01-04T02:08:35.886Z,99.99
2019-01-04T02:09:35.877Z,99.99
2019-01-04T02:10:35.898Z,99.99
2019-01-04T02:11:35.820Z,99.99
2019-01-04T02:12:35.842Z,99.99
2019-01-04T02:13:35.799Z,99.99
2019-01-04T02:14:35.789Z,99.99
2019-01-04T02:15:35.804Z,99.99
2019-01-04T02:16:35.823Z,99.99
2019-01-04T02:17:35.757Z,99.99
2019-01-04T02:18:35.746Z,99.99
2019-01-04T02:19:35.763Z,99.99
2019-01-04T02:20:35.725Z,99.99
2019-01-04T02:21:35.721Z,99.99
2019-01-04T02:22:35.770Z,99.99
2019-01-04T02:23:35.693Z,99.99
2019-01-04T02:24:35.720Z,99.99
2019-01-04T02:25:35.669Z,99.99
2019-01-04T02:26:35.661Z,99.99
2019-01-04T02:27:35.653Z,99.99
2019-01-04T02:28:35.673Z,99.99
2019-01-04T02:29:35.655Z,99.99
2019-01-04T02:30:35.619Z,99.99
2019-01-04T02:31:35.633Z,99.99
2019-01-04T02:32:35.604Z,99.99
2019-01-04T02:33:35.584Z,99.99
2019-01-04T02:34:35.588Z,99.99
2019-01-04T02:35:35.732Z,99.99
2019-01-04T02:36:35.585Z,99.99
2019-01-04T02:37:35.542Z,99.99
2019-01-04T02:38:35.548Z,99.95
2019-01-04T02:39:35.533Z,99.99
2019-01-04T02:40:35.536Z,99.99
2019-01-04T02:41:35.508Z,99.99
2019-01-04T02:42:35.520Z,99.99
2019-01-04T02:43:35.481Z,99.99
2019-01-04T02:44:35.470Z,99.99
2019-01-04T02:45:35.452Z,99.93
2019-01-04T02:46:35.520Z,99.99
2019-01-04T02:47:35.430Z,99.99
2019-01-04T02:48:35.419Z,99.99
2019-01-04T02:49:35.409Z,99.99
2019-01-04T02:50:35.402Z,99.99
2019-01-04T02:51:35.417Z,99.99
2019-01-04T02:52:35.421Z,99.99
2019-01-04T02:53:35.367Z,99.99
2019-01-04T02:54:35.358Z,99.99
2019-01-04T02:55:35.386Z,99.99
2019-01-04T02:56:35.336Z,99.99
2019-01-04T02:57:35.329Z,99.99
2019-01-04T02:58:35.351Z,99.99
2019-01-04T02:59:35.309Z,99.99
2019-01-04T03:00:35.319Z,99.99
2019-01-04T03:01:35.293Z,99.99
2019-01-04T03:02:35.269Z,99.99
2019-01-04T03:03:35.274Z,99.99
2019-01-04T03:04:35.285Z,99.99
2019-01-04T03:05:35.242Z,99.95
2019-01-04T03:06:35.227Z,99.99
2019-01-04T03:07:35.218Z,99.99
2019-01-04T03:08:35.228Z,99.95
2019-01-04T03:09:35.192Z,99.99
2019-01-04T03:10:35.208Z,99.99
2019-01-04T03:11:35.198Z,99.99
2019-01-04T03:12:35.160Z,99.95
2019-01-04T03:13:35.173Z,99.99
2019-01-04T03:14:35.150Z,99.99
2019-01-04T03:15:35.129Z,99.99
2019-01-04T03:16:35.154Z,99.99
2019-01-04T03:17:35.133Z,99.99
2019-01-04T03:18:35.096Z,99.99
2019-01-04T03:19:35.099Z,99.99
2019-01-04T03:20:35.077Z,99.99
2019-01-04T03:21:35.089Z,99.99
2019-01-04T03:22:35.085Z,99.99
2019-01-04T03:23:35.045Z,99.99
2019-01-04T03:24:35.030Z,99.99
2019-01-04T03:25:35.046Z,99.99
2019-01-04T03:26:35.044Z,99.99
2019-01-04T03:27:34.999Z,99.99
2019-01-04T03:28:34.995Z,99.99
2019-01-04T03:29:35.023Z,99.99
2019-01-04T03:30:34.977Z,99.99
2019-01-04T03:31:34.990Z,99.82
2019-01-04T03:32:34.950Z,99.99
2019-01-04T03:33:34.933Z,99.93
2019-01-04T03:34:34.924Z,99.99
2019-01-04T03:35:34.962Z,99.93
2019-01-04T03:36:34.938Z,99.93
2019-01-04T03:37:34.893Z,99.72
2019-01-04T03:38:34.884Z,99.99
2019-01-04T03:39:34.872Z,99.99
2019-01-04T03:40:34.862Z,99.99
2019-01-04T03:41:34.911Z,99.99
2019-01-04T03:42:34.862Z,99.99
2019-01-04T03:43:34.829Z,99.99
2019-01-04T03:44:34.817Z,99.99
2019-01-04T03:45:34.833Z,99.99
2019-01-04T03:46:34.792Z,99.99
2019-01-04T03:47:34.813Z,99.99
2019-01-04T03:48:34.772Z,99.99
2019-01-04T03:49:34.788Z,99.99
2019-01-04T03:50:34.755Z,99.99
2019-01-04T03:51:34.742Z,99.99
2019-01-04T03:52:34.733Z,99.93
2019-01-04T03:53:34.753Z,99.99
2019-01-04T03:54:34.740Z,99.99
2019-01-04T03:55:34.698Z,99.99
2019-01-04T03:56:34.685Z,99.99
2019-01-04T03:57:34.705Z,99.99
2019-01-04T03:58:34.756Z,99.99
2019-01-04T03:59:34.675Z,99.87
2019-01-04T04:00:34.643Z,99.99
2019-01-04T04:01:34.666Z,99.99
2019-01-04T04:02:34.620Z,99.99
2019-01-04T04:03:34.646Z,99.99
2019-01-04T04:04:34.602Z,99.99
2019-01-04T04:05:34.618Z,99.99
2019-01-04T04:06:34.578Z,99.99
2019-01-04T04:07:34.627Z,99.99
2019-01-04T04:08:34.585Z,99.99
2019-01-04T04:09:34.569Z,99.99
2019-01-04T04:10:34.535Z,99.99
2019-01-04T04:11:34.522Z,99.98
2019-01-04T04:12:34.516Z,99.99
2019-01-04T04:13:34.527Z,99.99
2019-01-04T04:14:34.491Z,99.99
2019-01-04T04:15:34.481Z,99.99
2019-01-04T04:16:34.470Z,99.99
2019-01-04T04:17:34.490Z,99.99
2019-01-04T04:18:34.460Z,99.99
2019-01-04T04:19:34.464Z,99.99
2019-01-04T04:20:34.429Z,99.82
2019-01-04T04:21:34.420Z,99.99
2019-01-04T04:22:34.432Z,99.99
2019-01-04T04:23:34.395Z,99.93
2019-01-04T04:24:34.392Z,99.99
2019-01-04T04:25:34.372Z,99.99
2019-01-04T04:26:34.390Z,99.82
2019-01-04T04:27:34.354Z,99.82
2019-01-04T04:28:34.339Z,99.82
2019-01-04T04:29:34.329Z,99.93
2019-01-04T04:30:34.355Z,99.82
2019-01-04T04:31:34.339Z,99.99
2019-01-04T04:32:34.299Z,99.99
2019-01-04T04:33:34.285Z,99.99
2019-01-04T04:34:34.277Z,99.99
2019-01-04T04:35:34.293Z,99.99
2019-01-04T04:36:34.278Z,99.99
2019-01-04T04:37:34.267Z,99.99
2019-01-04T04:38:34.237Z,99.99
2019-01-04T04:39:34.219Z,99.99
2019-01-04T04:40:34.209Z,99.99
2019-01-04T04:41:34.225Z,99.99
2019-01-04T04:42:34.200Z,99.99
2019-01-04T04:43:34.178Z,99.99
2019-01-04T04:44:34.203Z,99.99
2019-01-04T04:45:34.162Z,99.99
2019-01-04T04:46:34.171Z,99.99
2019-01-04T04:47:34.135Z,99.99
2019-01-04T04:48:34.152Z,99.99
2019-01-04T04:49:34.147Z,99.99
2019-01-04T04:50:34.102Z,99.99
2019-01-04T04:51:34.093Z,99.99
2019-01-04T04:52:34.083Z,99.99
2019-01-04T04:53:34.071Z,99.99
2019-01-04T04:54:34.093Z,99.99
2019-01-04T04:55:34.049Z,99.99
2019-01-04T04:56:34.039Z,99.99
2019-01-04T04:57:34.028Z,99.99
2019-01-04T04:58:34.040Z,99.99
2019-01-04T04:59:34.009Z,99.99
2019-01-04T05:00:34.043Z,99.99
2019-01-04T05:01:33.982Z,99.99
2019-01-04T05:02:33.971Z,99.99
2019-01-04T05:03:33.960Z,99.99
2019-01-04T05:04:33.982Z,99.99
2019-01-04T05:05:33.941Z,99.99
2019-01-04T05:06:33.971Z,99.99
2019-01-04T05:07:33.922Z,99.99
2019-01-04T05:08:33.906Z,99.99
2019-01-04T05:09:33.899Z,99.99
2019-01-04T05:10:33.885Z,99.99
2019-01-04T05:11:33.894Z,99.99
2019-01-04T05:12:33.894Z,99.99
2019-01-04T05:13:33.853Z,99.99
2019-01-04T05:14:33.842Z,99.99
2019-01-04T05:15:33.855Z,99.99
2019-01-04T05:16:33.852Z,99.99
2019-01-04T05:17:33.815Z,99.99
2019-01-04T05:18:33.810Z,99.99
2019-01-04T05:19:33.822Z,99.99
2019-01-04T05:20:33.779Z,99.99
2019-01-04T05:21:33.797Z,99.99
2019-01-04T05:22:33.757Z,99.99
2019-01-04T05:23:33.746Z,99.99
2019-01-04T05:24:33.736Z,99.99
2019-01-04T05:25:33.753Z,99.99
2019-01-04T05:26:33.736Z,99.98
2019-01-04T05:27:33.706Z,99.99
2019-01-04T05:28:33.690Z,99.99
2019-01-04T05:29:33.681Z,99.88
2019-01-04T05:30:33.670Z,99.88
2019-01-04T05:31:33.708Z,99.99
2019-01-04T05:32:33.653Z,99.99
2019-01-04T05:33:33.648Z,99.98
2019-01-04T05:34:33.626Z,99.94
2019-01-04T05:35:33.616Z,99.99
2019-01-04T05:36:33.631Z,99.94
2019-01-04T05:37:33.623Z,99.99
2019-01-04T05:38:33.647Z,99.99
2019-01-04T05:39:33.575Z,99.99
2019-01-04T05:40:33.560Z,99.99
2019-01-04T05:41:33.590Z,99.90
2019-01-04T05:42:33.583Z,99.90
2019-01-04T05:43:33.534Z,99.99
2019-01-04T05:44:33.516Z,99.99
2019-01-04T05:45:33.511Z,99.99
2019-01-04T05:46:33.493Z,99.99
2019-01-04T05:47:33.512Z,99.99
2019-01-04T05:48:33.476Z,99.99
2019-01-04T05:49:33.523Z,99.91
2019-01-04T05:50:33.452Z,99.99
2019-01-04T05:51:33.448Z,99.85
2019-01-04T05:52:33.459Z,99.74
2019-01-04T05:53:33.417Z,99.95
2019-01-04T05:54:33.407Z,99.99
2019-01-04T05:55:33.434Z,99.70
2019-01-04T05:56:33.433Z,99.80
2019-01-04T05:57:33.375Z,99.91
2019-01-04T05:58:33.362Z,99.91
2019-01-04T05:59:33.350Z,99.80
2019-01-04T06:00:33.341Z,99.80
2019-01-04T06:01:33.360Z,99.80
2019-01-04T06:02:33.341Z,99.80
2019-01-04T06:03:33.334Z,99.80
2019-01-04T06:04:33.300Z,99.65
2019-01-04T06:05:33.317Z,99.99
2019-01-04T06:06:33.307Z,99.86
2019-01-04T06:07:33.264Z,99.99
2019-01-04T06:08:33.266Z,99.99
2019-01-04T06:09:33.244Z,99.80
2019-01-04T06:10:33.259Z,99.80
2019-01-04T06:11:33.221Z,99.99
2019-01-04T06:12:33.248Z,99.99
2019-01-04T06:13:33.199Z,99.96
2019-01-04T06:14:33.220Z,99.99
2019-01-04T06:15:33.182Z,99.99
2019-01-04T06:16:33.167Z,99.65
2019-01-04T06:17:33.180Z,99.96
2019-01-04T06:18:33.145Z,99.86
2019-01-04T06:19:33.134Z,99.96
2019-01-04T06:20:33.161Z,99.86
2019-01-04T06:21:33.120Z,99.76
2019-01-04T06:22:33.131Z,99.55
2019-01-04T06:23:33.090Z,99.55
2019-01-04T06:24:33.079Z,99.49
2019-01-04T06:25:33.098Z,99.38
2019-01-04T06:26:33.138Z,99.34
2019-01-04T06:27:33.047Z,99.49
2019-01-04T06:28:33.037Z,99.49
2019-01-04T06:29:33.054Z,99.55
2019-01-04T06:30:33.015Z,99.44
2019-01-04T06:31:33.033Z,99.65
2019-01-04T06:32:33.027Z,99.34
2019-01-04T06:33:32.982Z,99.51
2019-01-04T06:34:32.970Z,99.24
2019-01-04T06:35:32.961Z,99.29
2019-01-04T06:36:32.977Z,99.19
2019-01-04T06:37:32.938Z,99.02
2019-01-04T06:38:32.965Z,98.92
2019-01-04T06:39:32.942Z,99.29
2019-01-04T06:40:32.933Z,98.88
2019-01-04T06:41:32.895Z,99.19
2019-01-04T06:42:32.882Z,99.19
2019-01-04T06:43:32.873Z,98.88
2019-01-04T06:44:32.920Z,98.88
2019-01-04T06:45:32.886Z,99.19
2019-01-04T06:46:32.840Z,99.08
2019-01-04T06:47:32.827Z,98.98
2019-01-04T06:48:32.817Z,98.88
2019-01-04T06:49:32.818Z,98.98
2019-01-04T06:50:32.839Z,98.88
2019-01-04T06:51:32.785Z,98.98
2019-01-04T06:52:32.774Z,98.98
2019-01-04T06:53:32.763Z,98.98
2019-01-04T06:54:32.774Z,99.08
2019-01-04T06:55:32.737Z,98.77
2019-01-04T06:56:32.783Z,98.98
2019-01-04T06:57:32.719Z,98.98
2019-01-04T06:58:32.706Z,98.98
2019-01-04T06:59:32.697Z,99.19
2019-01-04T07:00:32.684Z,98.98
2019-01-04T07:01:32.702Z,98.88
2019-01-04T07:02:32.684Z,98.98
2019-01-04T07:03:32.658Z,98.98
2019-01-04T07:04:32.641Z,98.98
2019-01-04T07:05:32.629Z,98.98
2019-01-04T07:06:32.649Z,98.67
2019-01-04T07:07:32.609Z,98.98
2019-01-04T07:08:32.625Z,99.19
2019-01-04T07:09:32.590Z,99.19
2019-01-04T07:10:32.601Z,98.98
2019-01-04T07:11:32.564Z,98.88
2019-01-04T07:12:32.557Z,98.56
2019-01-04T07:13:32.596Z,98.98
2019-01-04T07:14:32.554Z,98.88
2019-01-04T07:15:32.523Z,99.40
2019-01-04T07:16:32.508Z,99.29
2019-01-04T07:17:32.500Z,98.67
2019-01-04T07:18:32.509Z,99.15
2019-01-04T07:19:32.531Z,99.29
2019-01-04T07:20:32.469Z,99.25
2019-01-04T07:21:32.456Z,99.35
2019-01-04T07:22:32.556Z,99.29
2019-01-04T07:23:32.434Z,99.56
2019-01-04T07:24:32.424Z,99.46
2019-01-04T07:25:32.453Z,99.35
2019-01-04T07:26:32.398Z,99.46
2019-01-04T07:27:32.417Z,99.46
2019-01-04T07:28:32.382Z,99.46
2019-01-04T07:29:32.366Z,99.35
2019-01-04T07:30:32.382Z,99.25
2019-01-04T07:31:32.369Z,98.62
2019-01-04T07:32:32.346Z,98.93
2019-01-04T07:33:32.322Z,99.04
2019-01-04T07:34:32.312Z,98.93
2019-01-04T07:35:32.304Z,98.83
2019-01-04T07:36:32.345Z,98.89
2019-01-04T07:37:32.288Z,98.89
2019-01-04T07:38:32.283Z,98.89
2019-01-04T07:39:32.258Z,99.20
2019-01-04T07:40:32.246Z,98.99
2019-01-04T07:41:32.270Z,98.68
2019-01-04T07:42:32.227Z,98.05
2019-01-04T07:43:32.216Z,98.58
2019-01-04T07:44:32.220Z,98.58
2019-01-04T07:45:32.197Z,98.58
2019-01-04T07:46:32.203Z,98.37
2019-01-04T07:47:32.167Z,98.68
2019-01-04T07:48:32.159Z,98.63
2019-01-04T07:49:32.169Z,98.47
2019-01-04T07:50:32.166Z,98.79
2019-01-04T07:51:32.150Z,98.79
2019-01-04T07:52:32.119Z,98.68
2019-01-04T07:53:32.104Z,98.63
2019-01-04T07:54:32.092Z,98.63
2019-01-04T07:55:32.080Z,98.63
2019-01-04T07:56:32.094Z,98.68
2019-01-04T07:57:32.066Z,98.74
2019-01-04T07:58:32.073Z,98.68
2019-01-04T07:59:32.035Z,97.95
2019-01-04T08:00:32.059Z,98.58
2019-01-04T08:01:32.014Z,98.63
2019-01-04T08:02:32.003Z,98.43
2019-01-04T08:03:32.021Z,98.53
2019-01-04T08:04:31.983Z,98.63
2019-01-04T08:05:32.007Z,98.58
2019-01-04T08:06:32.029Z,98.43
2019-01-04T08:07:31.957Z,98.53
2019-01-04T08:08:31.938Z,98.53
2019-01-04T08:09:31.951Z,97.95
2019-01-04T08:10:31.955Z,97.91
2019-01-04T08:11:31.907Z,97.85
2019-01-04T08:12:31.917Z,97.80
2019-01-04T08:13:31.907Z,98.01
2019-01-04T08:14:31.872Z,97.85
2019-01-04T08:15:31.883Z,98.05
2019-01-04T08:16:31.851Z,98.37
2019-01-04T08:17:31.839Z,98.32
2019-01-04T08:18:31.849Z,98.11
2019-01-04T08:19:31.852Z,98.05
2019-01-04T08:20:31.807Z,97.91
2019-01-04T08:21:31.796Z,98.11
2019-01-04T08:22:31.784Z,98.11
2019-01-04T08:23:31.773Z,98.01
2019-01-04T08:24:31.786Z,97.65
2019-01-04T08:25:31.777Z,97.75
2019-01-04T08:26:31.764Z,97.97
2019-01-04T08:27:31.731Z,97.75
2019-01-04T08:28:31.724Z,97.34
2019-01-04T08:29:31.713Z,97.65
2019-01-04T08:30:31.709Z,97.80
2019-01-04T08:31:31.714Z,97.75
2019-01-04T08:32:31.676Z,96.92
2019-01-04T08:33:31.670Z,97.13
2019-01-04T08:34:31.653Z,97.13
2019-01-04T08:35:31.664Z,97.44
2019-01-04T08:36:31.646Z,97.13
2019-01-04T08:37:31.656Z,96.61
2019-01-04T08:38:31.609Z,96.61
2019-01-04T08:39:31.601Z,96.50
2019-01-04T08:40:31.586Z,96.19
2019-01-04T08:41:31.578Z,96.15
2019-01-04T08:42:31.594Z,96.40
2019-01-04T08:43:31.555Z,96.04
2019-01-04T08:44:31.544Z,96.36
2019-01-04T08:45:31.533Z,96.15
2019-01-04T08:46:31.520Z,96.25
2019-01-04T08:47:31.533Z,96.36
2019-01-04T08:48:31.516Z,96.25
2019-01-04T08:49:31.491Z,96.36
2019-01-04T08:50:31.479Z,96.56
2019-01-04T08:51:31.494Z,96.11
2019-01-04T08:52:31.455Z,96.56
2019-01-04T08:53:31.470Z,96.46
2019-01-04T08:54:31.446Z,96.67
2019-01-04T08:55:31.422Z,96.21
2019-01-04T08:56:31.411Z,96.46
2019-01-04T08:57:31.463Z,96.73
2019-01-04T08:58:31.392Z,96.56
2019-01-04T08:59:31.381Z,96.98
2019-01-04T09:00:32.894Z,97.40
2019-01-04T09:01:31.359Z,97.30
2019-01-04T09:02:31.373Z,97.30
2019-01-04T09:03:31.335Z,97.19
2019-01-04T09:04:31.327Z,96.88
2019-01-04T09:05:31.312Z,97.30
2019-01-04T09:06:31.315Z,97.61
2019-01-04T09:07:31.319Z,97.71
2019-01-04T09:08:31.332Z,97.71
2019-01-04T09:09:31.272Z,96.98
2019-01-04T09:10:31.259Z,97.30
2019-01-04T09:11:31.294Z,97.19
2019-01-04T09:12:31.239Z,96.83
2019-01-04T09:13:31.243Z,96.88
2019-01-04T09:14:31.250Z,97.09
2019-01-04T09:15:31.204Z,97.19
2019-01-04T09:16:31.192Z,96.88
2019-01-04T09:17:31.181Z,97.25
2019-01-04T09:18:31.170Z,97.35
2019-01-04T09:19:31.199Z,97.40
2019-01-04T09:20:31.149Z,97.71
2019-01-04T09:21:31.138Z,97.67
2019-01-04T09:22:31.130Z,97.61
2019-01-04T09:23:31.142Z,97.35
2019-01-04T09:24:31.106Z,97.40
2019-01-04T09:25:31.114Z,97.56
2019-01-04T09:26:31.083Z,97.67
2019-01-04T09:27:31.080Z,97.56
2019-01-04T09:28:31.085Z,97.50
2019-01-04T09:29:31.072Z,97.30
2019-01-04T09:30:31.039Z,97.40
2019-01-04T09:31:31.037Z,97.40
2019-01-04T09:32:31.018Z,97.71
2019-01-04T09:33:31.032Z,97.25
2019-01-04T09:34:30.998Z,96.88
2019-01-04T09:35:30.986Z,97.14
2019-01-04T09:36:30.998Z,97.14
2019-01-04T09:37:30.972Z,96.94
2019-01-04T09:38:30.953Z,97.46
2019-01-04T09:39:30.966Z,96.42
2019-01-04T09:40:30.929Z,96.48
2019-01-04T09:41:30.922Z,96.26
2019-01-04T09:42:30.935Z,96.06
2019-01-04T09:43:30.903Z,96.06
2019-01-04T09:44:30.898Z,95.75
2019-01-04T09:45:30.875Z,95.85
2019-01-04T09:46:31.201Z,95.85
2019-01-04T09:47:30.854Z,96.00
2019-01-04T09:48:30.869Z,96.26
2019-01-04T09:49:30.857Z,95.85
2019-01-04T09:50:30.830Z,96.06
2019-01-04T09:51:30.942Z,96.06
2019-01-04T09:52:30.825Z,96.16
2019-01-04T09:53:30.788Z,96.06
2019-01-04T09:54:30.777Z,95.75
2019-01-04T09:55:30.767Z,95.85
2019-01-04T09:56:30.783Z,95.85
2019-01-04T09:57:30.851Z,96.06
2019-01-04T09:58:30.738Z,95.85
2019-01-04T09:59:30.723Z,95.95
2019-01-04T10:00:31.589Z,96.06
2019-01-04T10:01:30.732Z,96.11
2019-01-04T10:02:30.702Z,96.06
2019-01-04T10:03:30.678Z,96.06
2019-01-04T10:04:30.668Z,96.26
2019-01-04T10:05:30.656Z,96.26
2019-01-04T10:06:30.672Z,96.06
2019-01-04T10:07:30.634Z,96.16
2019-01-04T10:08:30.645Z,96.16
2019-01-04T10:09:30.612Z,96.37
2019-01-04T10:10:30.626Z,96.06
2019-01-04T10:11:30.590Z,96.06
2019-01-04T10:12:30.578Z,96.26
2019-01-04T10:13:30.591Z,96.16
2019-01-04T10:14:30.571Z,96.37
2019-01-04T10:15:30.548Z,96.58
2019-01-04T10:16:30.540Z,96.26
2019-01-04T10:17:30.527Z,96.26
2019-01-04T10:18:30.537Z,95.95
2019-01-04T10:19:30.506Z,96.37
2019-01-04T10:20:30.548Z,96.16
2019-01-04T10:21:30.482Z,95.85
2019-01-04T10:22:30.585Z,95.95
2019-01-04T10:23:30.459Z,96.26
2019-01-04T10:24:30.448Z,96.26
2019-01-04T10:25:30.438Z,96.22
2019-01-04T10:26:30.450Z,96.58
2019-01-04T10:27:30.445Z,96.48
2019-01-04T10:28:30.406Z,95.85
2019-01-04T10:29:30.393Z,95.81
2019-01-04T10:30:30.381Z,96.37
2019-01-04T10:31:30.371Z,96.33
2019-01-04T10:32:30.409Z,95.85
2019-01-04T10:33:30.357Z,95.81
2019-01-04T10:34:30.338Z,95.91
2019-01-04T10:35:30.350Z,95.18
2019-01-04T10:36:30.339Z,94.56
2019-01-04T10:37:30.307Z,95.08
2019-01-04T10:38:30.304Z,95.14
2019-01-04T10:39:30.282Z,95.14
2019-01-04T10:40:30.274Z,95.03
2019-01-04T10:41:30.287Z,94.31
2019-01-04T10:42:30.250Z,94.31
2019-01-04T10:43:30.265Z,95.03
2019-01-04T10:44:30.278Z,95.45
2019-01-04T10:45:30.224Z,95.45
2019-01-04T10:46:30.212Z,95.14
2019-01-04T10:47:30.285Z,95.14
2019-01-04T10:48:30.192Z,95.56
2019-01-04T10:49:30.195Z,95.25
2019-01-04T10:50:30.188Z,95.14
2019-01-04T10:51:30.156Z,95.14
2019-01-04T10:52:30.180Z,94.87
2019-01-04T10:53:30.156Z,95.66
2019-01-04T10:54:30.123Z,95.14
2019-01-04T10:55:30.204Z,95.50
2019-01-04T10:56:30.322Z,95.76
2019-01-04T10:57:30.088Z,95.87
2019-01-04T10:58:30.083Z,96.28
2019-01-04T10:59:30.102Z,95.66
2019-01-04T11:00:30.059Z,95.76
2019-01-04T11:01:30.048Z,96.39
2019-01-04T11:02:30.105Z,95.91
2019-01-04T11:03:30.024Z,95.97
2019-01-04T11:04:30.045Z,95.91
2019-01-04T11:05:30.055Z,96.12
2019-01-04T11:06:30.020Z,95.66
2019-01-04T11:07:29.977Z,94.93
2019-01-04T11:08:29.966Z,95.35
2019-01-04T11:09:29.955Z,95.25
2019-01-04T11:10:29.967Z,95.14
2019-01-04T11:11:29.975Z,95.03
2019-01-04T11:12:29.967Z,95.03
2019-01-04T11:13:29.919Z,95.09
2019-01-04T11:14:29.915Z,95.03
2019-01-04T11:15:30.091Z,94.93
2019-01-04T11:16:29.887Z,94.72
2019-01-04T11:17:29.892Z,94.99
2019-01-04T11:18:29.909Z,94.99
2019-01-04T11:19:29.848Z,94.89
2019-01-04T11:20:29.850Z,94.31
2019-01-04T11:21:29.838Z,94.51
2019-01-04T11:22:29.816Z,94.10
2019-01-04T11:23:29.889Z,94.41
2019-01-04T11:24:29.791Z,94.41
2019-01-04T11:25:29.795Z,94.41
2019-01-04T11:26:29.771Z,94.37
2019-01-04T11:27:31.006Z,94.26
2019-01-04T11:28:37.579Z,94.31
2019-01-04T11:29:31.139Z,95.09
2019-01-04T11:30:29.750Z,94.68
2019-01-04T11:31:36.255Z,93.95
2019-01-04T11:32:29.766Z,94.47
2019-01-04T11:33:29.798Z,94.68
2019-01-04T11:34:29.680Z,94.68
2019-01-04T11:35:29.671Z,94.37
2019-01-04T11:36:29.661Z,94.68
2019-01-04T11:37:29.659Z,94.68
2019-01-04T11:38:29.652Z,94.37
2019-01-04T11:39:29.681Z,94.68
2019-01-04T11:40:29.617Z,94.57
2019-01-04T11:41:29.623Z,95.09
2019-01-04T11:42:29.617Z,94.89
2019-01-04T11:43:29.614Z,94.99
2019-01-04T11:44:29.571Z,95.30
2019-01-04T11:45:29.560Z,95.51
2019-01-04T11:46:29.560Z,94.99
2019-01-04T11:47:29.573Z,94.82
2019-01-04T11:48:29.527Z,94.78
2019-01-04T11:49:29.515Z,95.09
2019-01-04T11:50:29.524Z,95.25
2019-01-04T11:51:29.571Z,95.20
2019-01-04T11:52:31.264Z,95.20
2019-01-04T11:53:29.472Z,95.14
2019-01-04T11:54:29.487Z,94.16
2019-01-04T11:55:29.462Z,94.89
2019-01-04T11:56:29.441Z,94.47
2019-01-04T11:57:29.428Z,94.26
2019-01-04T11:58:29.446Z,94.37
2019-01-04T11:59:29.415Z,94.16
2019-01-04T12:00:29.397Z,94.47
2019-01-04T12:01:29.385Z,94.26
2019-01-04T12:02:29.376Z,94.68
2019-01-04T12:03:29.391Z,94.43
2019-01-04T12:04:29.362Z,94.57
2019-01-04T12:05:29.342Z,94.37
2019-01-04T12:06:29.330Z,94.78
2019-01-04T12:07:29.344Z,95.40
2019-01-04T12:08:29.344Z,95.20
2019-01-04T12:09:29.297Z,95.40
2019-01-04T12:10:29.306Z,95.05
2019-01-04T12:11:29.302Z,94.47
2019-01-04T12:12:29.344Z,94.26
2019-01-04T12:13:29.253Z,94.06
2019-01-04T12:14:29.243Z,94.57
2019-01-04T12:15:29.262Z,94.26
2019-01-04T12:16:29.224Z,94.26
2019-01-04T12:17:29.210Z,94.99
2019-01-04T12:18:29.202Z,95.09
2019-01-04T12:19:29.227Z,94.78
2019-01-04T12:20:29.185Z,94.26
2019-01-04T12:21:29.169Z,94.22
2019-01-04T12:22:30.062Z,94.37
2019-01-04T12:23:29.192Z,94.12
2019-01-04T12:24:29.167Z,94.16
2019-01-04T12:25:29.125Z,94.12
2019-01-04T12:26:29.111Z,94.06
2019-01-04T12:27:29.104Z,93.64
2019-01-04T12:28:29.112Z,93.85
2019-01-04T12:29:29.082Z,94.01
2019-01-04T12:30:29.081Z,94.74
2019-01-04T12:31:29.056Z,94.47
2019-01-04T12:32:29.068Z,94.01
2019-01-04T12:33:29.056Z,93.70
2019-01-04T12:34:29.024Z,93.85
2019-01-04T12:35:29.013Z,94.43
2019-01-04T12:36:29.019Z,94.68
2019-01-04T12:37:28.991Z,94.26
2019-01-04T12:38:29.004Z,94.53
2019-01-04T12:39:28.969Z,94.12
2019-01-04T12:40:28.958Z,93.85
2019-01-04T12:41:28.948Z,94.26
2019-01-04T12:42:28.968Z,94.47
2019-01-04T12:43:28.931Z,94.06
2019-01-04T12:44:28.914Z,94.32
2019-01-04T12:45:28.905Z,94.64
2019-01-04T12:46:28.893Z,94.37
2019-01-04T12:47:28.906Z,94.43
2019-01-04T12:48:30.980Z,94.53
2019-01-04T12:49:28.862Z,94.53
2019-01-04T12:50:28.883Z,94.53
2019-01-04T12:51:28.840Z,93.80
2019-01-04T12:52:30.463Z,94.37